createdAt,value
2022-09-21T00:02:29.249Z,1.92
2022-09-21T00:07:31.628Z,1.70
2022-09-21T00:12:34.095Z,2.00
2022-09-21T00:17:37.367Z,1.95
2022-09-21T00:22:39.793Z,2.13
2022-09-21T00:27:42.371Z,1.65
2022-09-21T00:32:44.770Z,1.60
2022-09-21T00:37:47.135Z,1.92
2022-09-21T00:42:49.653Z,2.00
2022-09-21T00:47:53.079Z,2.38
2022-09-21T00:52:57.975Z,2.30
2022-09-21T00:58:05.176Z,1.70
2022-09-21T01:03:09.370Z,1.83
2022-09-21T01:08:14.078Z,2.03
2022-09-21T01:13:37.498Z,2.17
2022-09-21T01:19:06.199Z,1.92
2022-09-21T01:24:31.545Z,2.28
2022-09-21T01:29:59.452Z,2.10
2022-09-21T01:35:17.634Z,1.60
2022-09-21T01:40:35.443Z,1.98
2022-09-21T01:45:45.000Z,1.98
2022-09-21T01:50:52.671Z,1.45
2022-09-21T01:56:20.945Z,2.10
2022-09-21T02:01:27.306Z,1.75
2022-09-21T02:06:31.764Z,1.75
2022-09-21T02:11:34.289Z,1.92
2022-09-21T02:16:42.377Z,1.90
2022-09-21T02:22:10.211Z,2.20
2022-09-21T02:27:22.111Z,2.10
2022-09-21T02:32:27.479Z,2.13
2022-09-21T02:37:39.459Z,1.60
2022-09-21T02:42:45.310Z,1.42
2022-09-21T02:48:15.290Z,2.10
2022-09-21T02:53:26.604Z,1.95
2022-09-21T02:58:30.976Z,1.75
2022-09-21T03:03:33.574Z,1.65
2022-09-21T03:08:35.954Z,2.20
2022-09-21T03:13:38.325Z,1.55
2022-09-21T03:18:43.179Z,1.52
2022-09-21T03:23:45.481Z,2.00
2022-09-21T03:28:49.286Z,1.58
2022-09-21T03:33:51.792Z,1.90
2022-09-21T03:38:54.212Z,1.52
2022-09-21T03:43:56.503Z,1.65
2022-09-21T03:48:58.866Z,1.70
2022-09-21T03:54:01.242Z,1.67
2022-09-21T03:59:03.879Z,2.03
2022-09-21T04:04:06.329Z,1.60
2022-09-21T04:09:08.788Z,1.73
2022-09-21T04:14:12.538Z,1.60
2022-09-21T04:19:14.852Z,1.52
2022-09-21T04:24:19.370Z,1.60
2022-09-21T04:29:21.865Z,1.52
2022-09-21T04:34:24.262Z,1.48
2022-09-21T04:39:26.822Z,1.70
2022-09-21T04:44:30.270Z,2.10
2022-09-21T04:49:32.703Z,1.63
2022-09-21T04:54:35.053Z,1.67
2022-09-21T04:59:37.488Z,1.50
2022-09-21T05:04:39.903Z,1.60
2022-09-21T05:10:01.033Z,1.63
2022-09-21T05:15:03.691Z,2.55
2022-09-21T05:20:06.623Z,2.03
2022-09-21T05:25:09.634Z,2.40
2022-09-21T05:30:12.855Z,2.30
2022-09-21T05:35:23.927Z,1.95
2022-09-21T05:40:27.008Z,2.28
2022-09-21T05:45:29.702Z,2.22
2022-09-21T05:50:44.095Z,1.90
2022-09-21T05:55:56.983Z,2.28
2022-09-21T06:00:59.448Z,2.13
2022-09-21T06:06:02.682Z,2.92
2022-09-21T06:11:05.405Z,2.42
2022-09-21T06:16:08.120Z,2.08
2022-09-21T06:21:10.739Z,1.83
2022-09-21T06:26:13.185Z,2.17
2022-09-21T06:31:15.503Z,1.65
2022-09-21T06:36:17.951Z,2.55
2022-09-21T06:41:21.464Z,2.03
2022-09-21T06:46:24.331Z,2.05
2022-09-21T06:51:26.769Z,2.15
2022-09-21T06:56:29.181Z,1.85
2022-09-21T07:01:31.636Z,2.28
2022-09-21T07:06:34.374Z,1.92
2022-09-21T07:11:37.000Z,1.65
2022-09-21T07:16:40.004Z,1.38
2022-09-21T07:21:42.511Z,1.75
2022-09-21T07:26:44.973Z,2.15
2022-09-21T07:31:48.453Z,1.60
2022-09-21T07:36:50.885Z,2.22
2022-09-21T07:41:53.592Z,2.03
2022-09-21T07:46:56.181Z,2.05
2022-09-21T07:52:03.553Z,1.70
2022-09-21T07:57:25.893Z,2.00
2022-09-21T08:02:28.360Z,1.63
2022-09-21T08:07:31.134Z,1.67
2022-09-21T08:12:33.527Z,2.17
2022-09-21T08:17:38.075Z,1.67
2022-09-21T08:22:41.028Z,2.00
2022-09-21T08:27:43.447Z,1.73
2022-09-21T08:32:52.108Z,3.77
2022-09-21T08:37:54.935Z,3.40
2022-09-21T08:43:15.567Z,2.70
2022-09-21T08:48:29.105Z,2.17
2022-09-21T08:53:49.236Z,2.03
2022-09-21T08:58:51.721Z,2.72
2022-09-21T09:04:02.623Z,1.87
2022-09-21T09:09:17.884Z,1.43
2022-09-21T09:14:29.997Z,1.80
2022-09-21T09:19:41.774Z,1.50
2022-09-21T09:24:49.678Z,1.90
2022-09-21T09:30:02.136Z,1.73
2022-09-21T09:35:20.367Z,1.43
2022-09-21T09:40:51.930Z,1.70
2022-09-21T09:46:12.071Z,1.70
2022-09-21T09:51:15.857Z,2.57
2022-09-21T09:56:18.726Z,1.70
2022-09-21T10:01:37.594Z,1.50
2022-09-21T10:06:43.810Z,1.40
2022-09-21T10:11:49.333Z,1.50
2022-09-21T10:16:53.505Z,1.70
2022-09-21T10:22:00.963Z,1.93
2022-09-21T10:27:05.348Z,2.03
2022-09-21T10:32:14.745Z,2.20
2022-09-21T10:37:37.476Z,1.77
2022-09-21T10:42:43.787Z,1.43
2022-09-21T10:47:57.569Z,1.80
2022-09-21T10:53:08.984Z,1.70
2022-09-21T10:58:13.259Z,1.80
2022-09-21T11:03:30.594Z,1.33
2022-09-21T11:08:43.961Z,1.20
2022-09-21T11:14:07.450Z,2.17
2022-09-21T11:19:24.884Z,2.10
2022-09-21T11:24:52.770Z,1.70
2022-09-21T11:30:11.377Z,1.60
2022-09-21T11:35:34.084Z,1.40
2022-09-21T11:40:42.693Z,1.00
2022-09-21T11:46:10.036Z,1.60
2022-09-21T11:51:43.858Z,1.30
2022-09-21T11:56:52.198Z,2.37
2022-09-21T12:02:29.065Z,2.27
2022-09-21T12:07:59.674Z,2.90
2022-09-21T12:13:04.872Z,3.00
2022-09-21T12:18:30.091Z,1.60
2022-09-21T12:23:53.057Z,1.10
2022-09-21T12:29:01.944Z,0.90
2022-09-21T12:34:18.954Z,0.63
2022-09-21T12:39:31.155Z,0.60
2022-09-21T12:45:05.098Z,0.53
2022-09-21T12:50:42.053Z,1.17
2022-09-21T12:56:07.662Z,1.10
2022-09-21T13:01:36.867Z,1.10
2022-09-21T13:06:42.904Z,4.53
2022-09-21T13:11:54.491Z,2.90
2022-09-21T13:17:01.088Z,1.30
2022-09-21T13:22:19.987Z,2.03
2022-09-21T13:27:22.568Z,1.07
2022-09-21T13:32:45.022Z,1.10
2022-09-21T13:38:23.377Z,1.80
2022-09-21T13:43:47.037Z,2.50
2022-09-21T13:48:53.947Z,3.10
2022-09-21T13:53:59.375Z,1.90
2022-09-21T13:59:01.767Z,2.03
2022-09-21T14:04:16.260Z,1.97
2022-09-21T14:09:40.956Z,1.50
2022-09-21T14:14:43.311Z,1.40
2022-09-21T14:19:54.715Z,1.43
2022-09-21T14:25:24.365Z,1.60
2022-09-21T14:30:34.515Z,1.70
2022-09-21T14:35:45.812Z,1.27
2022-09-21T14:40:54.879Z,1.65
2022-09-21T14:46:09.023Z,1.40
2022-09-21T14:51:38.321Z,1.50
2022-09-21T14:56:51.763Z,1.10
2022-09-21T15:02:02.446Z,1.38
2022-09-21T15:07:49.907Z,1.40
2022-09-21T15:13:20.274Z,1.20
2022-09-21T15:18:23.715Z,1.20
2022-09-21T15:23:26.366Z,1.27
2022-09-21T15:29:04.962Z,1.48
2022-09-21T15:34:02.731Z,0.90
2022-09-21T15:39:06.190Z,1.50
2022-09-21T15:44:16.306Z,2.17
2022-09-21T15:49:23.513Z,1.10
2022-09-21T15:54:45.984Z,0.77
2022-09-21T15:59:48.407Z,1.33
2022-09-21T16:04:52.293Z,1.50
2022-09-21T16:09:55.037Z,1.10
2022-09-21T16:15:08.457Z,0.80
2022-09-21T16:20:20.546Z,0.98
2022-09-21T16:25:34.662Z,1.08
2022-09-21T16:31:22.807Z,1.13
2022-09-21T16:36:31.923Z,1.13
2022-09-21T16:41:38.839Z,1.15
2022-09-21T16:46:44.010Z,1.73
2022-09-21T16:51:49.835Z,1.10
2022-09-21T16:56:54.437Z,1.38
2022-09-21T17:01:58.286Z,1.40
2022-09-21T17:07:01.517Z,1.95
2022-09-21T17:12:06.989Z,1.98
2022-09-21T17:17:18.425Z,1.80
2022-09-21T17:22:21.952Z,1.75
2022-09-21T17:27:26.797Z,2.13
2022-09-21T17:32:29.529Z,2.67
2022-09-21T17:37:33.908Z,3.88
2022-09-21T17:42:41.238Z,5.13
2022-09-21T17:47:43.966Z,6.65
2022-09-21T17:53:05.119Z,6.65
2022-09-21T17:58:23.425Z,6.43
2022-09-21T18:03:28.786Z,6.32
2022-09-21T18:08:34.058Z,6.32
2022-09-21T18:13:39.172Z,5.72
2022-09-21T18:18:47.071Z,6.82
2022-09-21T18:24:14.864Z,6.30
2022-09-21T18:29:43.895Z,6.57
2022-09-21T18:35:20.544Z,5.78
2022-09-21T18:40:56.440Z,5.43
2022-09-21T18:46:05.608Z,5.85
2022-09-21T18:51:27.344Z,5.03
2022-09-21T18:56:36.028Z,4.95
2022-09-21T19:01:38.937Z,6.07
2022-09-21T19:06:59.903Z,5.93
2022-09-21T19:12:21.088Z,5.82
2022-09-21T19:17:42.319Z,6.00
2022-09-21T19:22:48.564Z,5.78
2022-09-21T19:27:59.321Z,5.93
2022-09-21T19:33:45.556Z,6.53
2022-09-21T19:38:42.229Z,5.60
2022-09-21T19:44:29.730Z,6.32
2022-09-21T19:49:55.743Z,5.75
2022-09-21T19:55:17.169Z,5.35
2022-09-21T20:00:21.177Z,6.45
2022-09-21T20:05:34.338Z,6.60
2022-09-21T20:10:49.009Z,5.93
2022-09-21T20:15:57.093Z,6.38
2022-09-21T20:21:02.169Z,6.15
2022-09-21T20:26:14.491Z,5.45
2022-09-21T20:31:16.855Z,6.18
2022-09-21T20:36:19.254Z,6.47
2022-09-21T20:41:24.467Z,5.72
2022-09-21T20:46:26.870Z,5.55
2022-09-21T20:51:29.364Z,5.88
2022-09-21T20:56:31.831Z,5.43
2022-09-21T21:01:34.337Z,5.50
2022-09-21T21:06:37.806Z,5.65
2022-09-21T21:11:40.958Z,5.93
2022-09-21T21:16:43.894Z,5.47
2022-09-21T21:21:46.340Z,5.53
2022-09-21T21:27:01.750Z,5.05
2022-09-21T21:32:05.451Z,4.78
2022-09-21T21:37:09.174Z,5.00
2022-09-21T21:42:11.939Z,5.35
2022-09-21T21:47:38.076Z,4.93
2022-09-21T21:52:37.447Z,4.55
2022-09-21T21:57:40.071Z,3.90
2022-09-21T22:02:42.452Z,4.85
2022-09-21T22:07:44.796Z,4.43
2022-09-21T22:12:47.242Z,5.05
2022-09-21T22:17:49.573Z,4.47
2022-09-21T22:22:51.943Z,4.63
2022-09-21T22:27:55.563Z,4.38
2022-09-21T22:32:58.254Z,4.17
2022-09-21T22:38:01.663Z,4.43
2022-09-21T22:43:04.051Z,4.28
2022-09-21T22:48:06.325Z,3.83
2022-09-21T22:53:08.684Z,4.10
2022-09-21T22:58:11.219Z,4.60
2022-09-21T23:03:13.766Z,4.10
2022-09-21T23:08:16.120Z,4.05
2022-09-21T23:13:18.590Z,3.90
2022-09-21T23:18:21.212Z,3.67
2022-09-21T23:23:24.349Z,3.85
2022-09-21T23:28:26.778Z,3.70
2022-09-21T23:33:40.944Z,3.53
2022-09-21T23:38:44.234Z,3.97
2022-09-21T23:43:47.077Z,3.75
2022-09-21T23:48:50.247Z,3.70
2022-09-21T23:53:52.836Z,3.13
2022-09-21T23:58:55.718Z,3.38
